Time;durP1;ratioP1;P1;durP2;ratioP2;P2;SDS_P1;SDS_P2;PMS_P1;PMS_P2;Temp;Humidity;BMP_temperature;BMP_pressure;BME280_temperature;BME280_humidity;BME280_pressure;Samples;Min_cycle;Max_cycle;Signal;HPM_P1;HPM_P2
2022/04/30 00:02:07;;;;;;;3.25;1.70;;;;;;;4.09;80.33;100062.94;5051177;28;20057;-40
2022/04/30 00:04:35;;;;;;;3.03;1.80;;;;;;;4.14;80.10;100074.94;5050448;28;20036;-39
2022/04/30 00:07:01;;;;;;;2.75;1.50;;;;;;;4.23;79.68;100067.22;5051215;28;20146;-40
2022/04/30 00:09:27;;;;;;;2.38;1.65;;;;;;;4.33;78.89;100072.34;5050982;28;20037;-40
2022/04/30 00:11:53;;;;;;;3.25;1.70;;;;;;;4.33;78.35;100055.19;5050994;28;20068;-42
2022/04/30 00:14:19;;;;;;;3.53;1.75;;;;;;;4.25;78.98;100062.06;5049908;28;20487;-39
2022/04/30 00:16:44;;;;;;;3.17;1.90;;;;;;;4.07;78.76;100033.81;5050874;28;20032;-39
2022/04/30 00:19:10;;;;;;;3.25;1.42;;;;;;;4.09;79.07;100043.22;5050812;28;20517;-40
2022/04/30 00:21:36;;;;;;;3.22;1.35;;;;;;;4.25;78.82;100062.91;5049976;28;20052;-40
2022/04/30 00:24:02;;;;;;;2.50;1.70;;;;;;;4.23;78.47;100059.50;5049249;28;20068;-41
2022/04/30 00:26:29;;;;;;;2.58;1.60;;;;;;;4.22;78.45;100052.66;5056671;28;20041;-39
2022/04/30 00:28:55;;;;;;;2.90;1.60;;;;;;;3.97;78.23;100030.41;5083452;28;20045;-41
2022/04/30 00:31:21;;;;;;;3.38;1.85;;;;;;;4.13;78.37;100052.69;5051188;28;20068;-40
2022/04/30 00:33:48;;;;;;;2.38;1.70;;;;;;;4.16;78.52;100073.25;5050155;28;20083;-41
2022/04/30 00:36:15;;;;;;;3.58;1.77;;;;;;;4.07;78.38;100056.97;5051028;28;20119;-39
2022/04/30 00:38:41;;;;;;;2.75;1.60;;;;;;;4.14;78.49;100074.09;5055779;28;20044;-40
2022/04/30 00:41:08;;;;;;;2.53;1.63;;;;;;;4.19;78.43;100069.78;5057975;28;20090;-40
2022/04/30 00:43:46;;;;;;;2.25;1.70;;;;;;;4.20;78.02;100076.66;5063931;28;20052;-40
2022/04/30 00:46:17;;;;;;;3.63;1.50;;;;;;;4.20;77.97;100074.94;5053114;28;20131;-40
2022/04/30 00:48:44;;;;;;;2.30;1.58;;;;;;;4.22;77.88;100074.94;5057618;28;20122;-40
2022/04/30 00:51:11;;;;;;;3.42;1.75;;;;;;;4.31;77.62;100074.06;5064541;28;20044;-41
2022/04/30 00:53:45;;;;;;;3.63;1.80;;;;;;;4.18;77.55;100045.81;5035678;28;20075;-41
2022/04/30 00:56:12;;;;;;;2.65;1.88;;;;;;;4.30;77.21;100069.75;5050722;28;20043;-41
2022/04/30 00:58:41;;;;;;;1.88;1.50;;;;;;;4.21;77.09;100068.94;5047450;28;20503;-40
2022/04/30 01:01:07;;;;;;;3.50;1.73;;;;;;;4.01;77.86;100046.69;5050300;28;20047;-40
2022/04/30 01:03:50;;;;;;;2.55;1.60;;;;;;;3.92;78.47;100055.28;5066847;28;20051;-39
2022/04/30 01:06:18;;;;;;;2.40;1.60;;;;;;;3.78;78.27;100057.84;5059305;28;20051;-40
2022/04/30 01:08:44;;;;;;;4.07;1.90;;;;;;;3.79;78.68;100082.72;5082346;28;20455;-39
2022/04/30 01:11:10;;;;;;;3.75;1.80;;;;;;;3.77;78.97;100087.00;5082568;28;20055;-39
2022/04/30 01:13:37;;;;;;;2.83;1.60;;;;;;;3.83;78.69;100087.00;5048587;28;20412;-39
2022/04/30 01:16:11;;;;;;;2.65;1.70;;;;;;;3.84;79.01;100081.00;5049334;28;20043;-39
2022/04/30 01:18:37;;;;;;;4.65;1.80;;;;;;;3.81;78.83;100075.03;5047970;28;20114;-40
2022/04/30 01:21:10;;;;;;;3.72;1.70;;;;;;;3.85;78.82;100084.44;5065555;28;20080;-39
2022/04/30 01:23:36;;;;;;;2.47;1.63;;;;;;;3.73;78.80;100058.72;5055687;28;20606;-40
2022/04/30 01:26:02;;;;;;;2.63;1.40;;;;;;;3.93;78.08;100089.56;5070112;28;20041;-41
2022/04/30 01:28:29;;;;;;;2.63;1.70;;;;;;;3.90;78.01;100081.84;5064489;28;20090;-39
2022/04/30 01:30:55;;;;;;;4.50;1.45;;;;;;;4.06;77.73;100089.56;5049771;28;20037;-40
2022/04/30 01:38:31;;;;;;;2.83;1.73;;;;;;;4.33;76.97;100083.50;5063955;28;20036;-40
2022/04/30 01:40:58;;;;;;;1.98;1.67;;;;;;;4.36;76.81;100078.31;5050124;28;20094;-39
2022/04/30 01:43:24;;;;;;;2.55;1.50;;;;;;;4.35;76.24;100089.47;5049848;28;20041;-39
2022/04/30 01:45:51;;;;;;;3.28;2.30;;;;;;;4.28;75.90;100067.22;5048189;28;20041;-40
2022/04/30 01:48:18;;;;;;;3.03;2.13;;;;;;;4.40;75.96;100082.59;5079317;28;20064;-40
2022/04/30 01:50:47;;;;;;;5.57;2.13;;;;;;;4.42;76.15;100086.03;5031838;28;20409;-40
2022/04/30 01:53:13;;;;;;;2.83;2.17;;;;;;;4.42;75.74;100082.59;5049199;28;20045;-40
2022/04/30 01:55:39;;;;;;;3.35;2.30;;;;;;;4.46;75.56;100092.03;5049236;28;20047;-40
2022/04/30 01:58:11;;;;;;;3.40;2.15;;;;;;;4.49;75.28;100084.31;5043267;28;20041;-40
2022/04/30 02:00:36;;;;;;;4.10;2.40;;;;;;;4.50;75.21;100094.56;5039032;28;20642;-40
2022/04/30 02:03:08;;;;;;;3.83;2.35;;;;;;;4.53;75.17;100097.16;5030141;28;20065;-40
2022/04/30 02:05:35;;;;;;;2.40;1.67;;;;;;;4.55;74.91;100082.53;5047998;28;20033;-41
2022/04/30 02:08:04;;;;;;;4.45;2.03;;;;;;;4.57;74.58;100088.56;5048678;28;20089;-40
2022/04/30 02:10:31;;;;;;;2.72;1.92;;;;;;;4.60;74.71;100085.13;5081581;28;20828;-39
2022/04/30 02:12:57;;;;;;;2.88;1.90;;;;;;;4.63;74.75;100091.13;5056286;28;20037;-40
2022/04/30 02:15:23;;;;;;;4.28;2.22;;;;;;;4.68;74.11;100088.50;5080880;28;20083;-40
2022/04/30 02:17:50;;;;;;;2.72;2.25;;;;;;;4.73;74.12;100091.06;5047470;28;20134;-40
2022/04/30 02:20:22;;;;;;;3.40;2.58;;;;;;;4.74;73.44;100093.66;5048715;28;20082;-40
2022/04/30 02:22:58;;;;;;;4.13;2.83;;;;;;;4.76;72.94;100078.19;5063334;28;20040;-40
2022/04/30 02:25:25;;;;;;;2.67;2.28;;;;;;;4.82;72.78;100089.28;5047863;28;20076;-40
2022/04/30 02:27:53;;;;;;;3.75;2.20;;;;;;;4.83;72.49;100096.16;5048560;28;20630;-40
2022/04/30 02:30:21;;;;;;;4.18;2.20;;;;;;;4.86;72.14;100101.31;5048767;28;20049;-39
2022/04/30 02:32:54;;;;;;;2.92;2.17;;;;;;;4.86;71.62;100103.91;5048205;28;20044;-41
2022/04/30 02:35:30;;;;;;;3.92;2.10;;;;;;;4.88;71.52;100111.59;5049108;28;20036;-39
2022/04/30 02:37:59;;;;;;;2.20;1.77;;;;;;;4.91;71.88;100111.59;5046858;28;20036;-39
2022/04/30 02:40:28;;;;;;;2.75;1.90;;;;;;;4.91;71.52;100109.03;5059378;28;20091;-39
2022/04/30 02:42:54;;;;;;;2.55;1.67;;;;;;;4.90;71.29;100110.75;5048320;28;20524;-40
2022/04/30 02:45:21;;;;;;;2.38;1.80;;;;;;;4.92;70.79;100116.72;5047185;28;20048;-39
2022/04/30 02:47:53;;;;;;;3.50;1.73;;;;;;;4.89;70.53;100114.19;5047294;28;20040;-39
2022/04/30 02:50:20;;;;;;;2.95;1.60;;;;;;;4.86;70.51;100119.34;5047598;28;20067;-41
2022/04/30 02:52:47;;;;;;;2.75;1.65;;;;;;;4.76;70.07;100109.97;5046663;28;20029;-40
2022/04/30 02:55:14;;;;;;;3.85;1.60;;;;;;;4.67;70.08;100118.56;5048405;28;20098;-40
2022/04/30 03:00:34;;;;;;;4.97;1.88;;;;;;;4.73;69.97;100117.69;5077325;28;20067;-40
2022/04/30 03:03:19;;;;;;;3.05;1.58;;;;;;;4.66;69.75;100118.56;5060137;28;20634;-40
2022/04/30 03:05:46;;;;;;;3.40;1.92;;;;;;;4.59;69.66;100119.47;5047041;28;20044;-39
2022/04/30 03:08:13;;;;;;;2.20;1.70;;;;;;;4.50;69.75;100114.34;5046585;28;20536;-40
2022/04/30 03:10:41;;;;;;;4.80;1.70;;;;;;;4.44;69.90;100124.66;5046086;28;20040;-40
2022/04/30 03:13:07;;;;;;;2.13;1.63;;;;;;;4.37;69.87;100128.09;5048197;28;20037;-39
2022/04/30 03:15:36;;;;;;;1.50;1.20;;;;;;;4.30;69.78;100119.53;5047398;28;20037;-39
2022/04/30 03:23:32;;;;;;;2.20;1.70;;;;;;;4.07;70.49;100134.16;5028436;28;20517;-41
2022/04/30 03:25:58;;;;;;;1.98;1.50;;;;;;;3.99;70.68;100123.84;5041594;28;20048;-39
2022/04/30 03:28:25;;;;;;;3.20;1.90;;;;;;;3.98;70.87;100129.84;5047960;28;20051;-39
2022/04/30 03:30:50;;;;;;;1.92;1.60;;;;;;;3.97;70.94;100128.16;5045760;28;20044;-40
2022/04/30 03:33:16;;;;;;;2.22;1.70;;;;;;;3.99;70.88;100134.16;5047938;28;20819;-39
2022/04/30 03:35:42;;;;;;;2.00;1.60;;;;;;;3.99;71.11;100131.56;5047436;28;20043;-40
2022/04/30 03:38:09;;;;;;;2.28;1.98;;;;;;;4.01;71.29;100136.72;5047700;28;20049;-39
2022/04/30 03:40:35;;;;;;;2.42;1.63;;;;;;;4.08;71.38;100131.56;5047769;28;20052;-39
2022/04/30 03:43:02;;;;;;;4.63;1.80;;;;;;;4.12;70.87;100135.00;5046431;28;20582;-41
2022/04/30 03:45:28;;;;;;;8.70;1.73;;;;;;;4.14;71.08;100141.84;5046538;28;20044;-40
2022/04/30 03:47:53;;;;;;;5.07;2.10;;;;;;;4.17;70.61;100138.44;5061841;28;20085;-39
2022/04/30 03:50:19;;;;;;;2.58;2.08;;;;;;;4.21;70.62;100145.28;5047858;28;20577;-41
2022/04/30 03:52:45;;;;;;;2.53;2.00;;;;;;;4.33;69.90;100146.97;5047775;28;20041;-40
2022/04/30 03:55:11;;;;;;;2.47;2.28;;;;;;;4.45;69.30;100149.53;5047074;28;20033;-40
2022/04/30 03:57:37;;;;;;;2.75;1.80;;;;;;;4.61;69.53;100149.47;5047626;28;20051;-40
2022/04/30 04:00:06;;;;;;;2.05;1.80;;;;;;;4.60;68.47;100158.09;5046042;28;20037;-40
2022/04/30 04:02:40;;;;;;;2.67;1.77;;;;;;;4.61;68.68;100146.91;5047383;28;20463;-41
2022/04/30 04:05:08;;;;;;;6.65;2.13;;;;;;;4.60;68.79;100159.81;5047338;28;20041;-41
2022/04/30 04:07:34;;;;;;;2.03;1.33;;;;;;;4.51;68.40;100157.22;5046370;28;20411;-40
2022/04/30 04:10:00;;;;;;;4.80;1.67;;;;;;;4.51;68.75;100163.22;5067976;28;20139;-41
2022/04/30 04:12:25;;;;;;;2.55;1.90;;;;;;;4.38;68.34;100125.53;5064530;28;20428;-41
2022/04/30 04:17:38;;;;;;;2.70;1.83;;;;;;;4.95;67.45;100177.72;5044819;28;20077;-40
2022/04/30 04:20:10;;;;;;;4.73;1.97;;;;;;;4.94;67.26;100163.09;5048766;28;20047;-39
2022/04/30 04:22:36;;;;;;;4.15;2.00;;;;;;;5.16;67.12;100180.19;5051096;28;20302;-39
2022/04/30 04:27:53;;;;;;;2.22;1.80;;;;;;;5.28;66.40;100182.72;5048349;28;20140;-39
2022/04/30 04:30:22;;;;;;;7.97;2.30;;;;;;;5.41;66.33;100183.50;5054168;28;20041;-39
2022/04/30 04:32:49;;;;;;;2.85;2.10;;;;;;;5.53;65.47;100183.44;5051136;28;20044;-40
2022/04/30 04:35:15;;;;;;;2.50;2.00;;;;;;;5.59;64.79;100161.91;5082860;28;20041;-40
2022/04/30 04:37:42;;;;;;;4.43;2.20;;;;;;;5.80;64.36;100190.16;5083085;28;20182;-41
2022/04/30 04:40:09;;;;;;;4.30;2.13;;;;;;;5.82;64.22;100183.22;5049349;28;20047;-40
2022/04/30 04:42:36;;;;;;;2.72;2.10;;;;;;;5.98;63.49;100195.19;5051384;28;20045;-39
2022/04/30 04:45:02;;;;;;;4.80;2.10;;;;;;;6.10;62.63;100195.09;5048824;28;20040;-39
2022/04/30 04:47:30;;;;;;;3.53;2.30;;;;;;;6.22;62.58;100189.00;5048911;28;20488;-40
2022/04/30 04:49:55;;;;;;;7.93;2.40;;;;;;;6.34;62.43;100191.44;5050342;28;20064;-40
2022/04/30 04:52:22;;;;;;;3.25;2.17;;;;;;;6.31;61.80;100191.47;5049267;28;20421;-39
2022/04/30 04:54:48;;;;;;;2.95;1.73;;;;;;;6.39;61.75;100193.13;5027549;28;20041;-40
2022/04/30 04:57:14;;;;;;;2.97;2.08;;;;;;;6.43;60.77;100193.97;5050189;28;20474;-39
2022/04/30 04:59:40;;;;;;;5.10;1.55;;;;;;;6.51;60.34;100199.03;5045510;28;20041;-41
2022/04/30 05:02:05;;;;;;;3.03;1.45;;;;;;;6.52;58.95;100193.00;5050082;28;20428;-41
2022/04/30 05:04:32;;;;;;;8.40;1.73;;;;;;;6.47;56.93;100202.53;5049790;28;20037;-41
2022/04/30 05:06:59;;;;;;;4.28;1.50;;;;;;;6.38;56.72;100195.75;5047437;28;20088;-41
2022/04/30 05:09:25;;;;;;;1.67;1.27;;;;;;;6.30;56.67;100198.38;5050090;28;20067;-40
2022/04/30 05:11:55;;;;;;;6.07;1.63;;;;;;;6.23;56.60;100191.53;5050768;28;20547;-40
2022/04/30 05:14:23;;;;;;;9.23;1.80;;;;;;;6.10;56.63;100171.00;5049765;28;20078;-40
2022/04/30 05:16:48;;;;;;;2.63;1.80;;;;;;;6.16;56.41;100196.78;5049976;28;20037;-41
2022/04/30 05:19:14;;;;;;;2.80;1.80;;;;;;;6.11;56.66;100189.09;5049511;28;20041;-45
2022/04/30 05:21:40;;;;;;;6.00;1.77;;;;;;;6.17;56.01;100194.19;5050050;28;20068;-41
2022/04/30 05:24:06;;;;;;;4.00;1.30;;;;;;;6.19;55.13;100199.31;5065106;28;20040;-40
2022/04/30 05:26:32;;;;;;;4.90;1.45;;;;;;;6.24;55.22;100188.09;5050025;28;20471;-41
2022/04/30 05:28:58;;;;;;;4.88;1.38;;;;;;;6.23;54.77;100195.84;5062970;28;20044;-41
2022/04/30 05:31:25;;;;;;;4.90;2.15;;;;;;;6.19;54.61;100191.59;5049096;28;20041;-39
2022/04/30 05:33:51;;;;;;;5.45;1.60;;;;;;;6.25;54.92;100200.13;5049941;28;20036;-40
2022/04/30 05:36:17;;;;;;;2.50;1.27;;;;;;;6.18;54.75;100179.53;5049994;28;20166;-40
2022/04/30 05:38:42;;;;;;;3.65;1.30;;;;;;;6.31;54.55;100194.06;5049356;28;20535;-41
2022/04/30 05:41:08;;;;;;;1.58;1.10;;;;;;;6.41;53.97;100200.00;5049254;28;20051;-41
2022/04/30 05:43:36;;;;;;;3.20;1.63;;;;;;;6.54;53.20;100194.69;5048325;28;20048;-40
2022/04/30 05:46:01;;;;;;;3.75;1.33;;;;;;;6.65;53.32;100194.59;5048585;28;20056;-41
2022/04/30 05:48:27;;;;;;;2.35;1.10;;;;;;;6.70;52.79;100195.38;5049129;28;20045;-40
2022/04/30 05:50:54;;;;;;;3.38;1.52;;;;;;;6.75;52.37;100193.66;5047965;28;20041;-40
2022/04/30 05:53:21;;;;;;;4.00;1.10;;;;;;;6.82;51.96;100195.28;5058790;28;20462;-41
2022/04/30 05:55:46;;;;;;;1.98;1.05;;;;;;;6.87;51.61;100192.63;5049651;28;20041;-41
2022/04/30 05:58:12;;;;;;;3.53;1.30;;;;;;;6.79;50.83;100182.41;5049573;28;20040;-42
2022/04/30 06:00:38;;;;;;;5.25;1.33;;;;;;;7.02;50.48;100200.19;5045147;28;20041;-42
2022/04/30 06:03:04;;;;;;;6.18;1.30;;;;;;;7.31;49.90;100207.63;5031517;28;20045;-43
2022/04/30 06:05:30;;;;;;;4.68;1.30;;;;;;;7.74;48.96;100203.59;5049089;28;20099;-40
2022/04/30 06:07:55;;;;;;;3.90;1.17;;;;;;;8.09;48.15;100208.22;5049235;28;20588;-41
2022/04/30 06:10:21;;;;;;;1.45;1.00;;;;;;;8.28;46.84;100203.56;5048967;28;20032;-41
2022/04/30 06:12:47;;;;;;;2.58;1.17;;;;;;;8.41;46.85;100208.59;5048047;28;20106;-41
2022/04/30 06:15:13;;;;;;;2.33;1.63;;;;;;;8.59;46.18;100197.00;5048330;28;20136;-41
2022/04/30 06:17:39;;;;;;;2.83;1.00;;;;;;;8.88;45.55;100207.72;5054463;28;20045;-42
2022/04/30 06:20:06;;;;;;;6.97;1.30;;;;;;;8.76;44.63;100201.91;5048354;28;20544;-38
2022/04/30 06:22:34;;;;;;;2.75;1.08;;;;;;;8.69;44.03;100203.75;5047302;28;20041;-41
2022/04/30 06:25:00;;;;;;;2.20;1.00;;;;;;;8.74;43.75;100191.53;5049061;28;20036;-38
2022/04/30 06:27:26;;;;;;;6.50;1.60;;;;;;;9.07;43.83;100196.97;5049011;28;20060;-40
2022/04/30 06:29:51;;;;;;;3.78;1.60;;;;;;;10.16;41.32;100210.13;5060570;28;20037;-38
2022/04/30 06:32:18;;;;;;;2.65;1.20;;;;;;;10.00;41.84;100198.38;5048474;28;20040;-37
2022/04/30 06:34:43;;;;;;;1.92;1.00;;;;;;;9.62;42.24;100201.88;5048264;28;20586;-39
2022/04/30 06:37:09;;;;;;;4.70;1.40;;;;;;;9.24;42.09;100197.50;5046042;28;20045;-39
2022/04/30 06:39:34;;;;;;;8.77;1.25;;;;;;;9.03;41.81;100201.38;5047991;28;20043;-39
2022/04/30 06:42:00;;;;;;;3.47;1.13;;;;;;;9.79;40.27;100208.38;5047810;28;20037;-39
2022/04/30 06:44:26;;;;;;;1.63;1.00;;;;;;;11.41;36.78;100192.84;5046114;28;20082;-37
2022/04/30 06:46:52;;;;;;;5.97;1.40;;;;;;;11.40;37.29;100205.94;5044846;28;20090;-39
2022/04/30 06:49:17;;;;;;;4.72;1.27;;;;;;;12.12;36.22;100204.59;5047983;28;20095;-38
2022/04/30 06:51:45;;;;;;;4.32;1.45;;;;;;;14.62;31.66;100196.94;5048592;28;20586;-39
2022/04/30 06:57:08;;;;;;;3.38;0.80;;;;;;;13.32;31.58;100200.44;5047877;28;20041;-39
2022/04/30 06:59:41;;;;;;;8.07;1.30;;;;;;;12.41;32.78;100206.25;5045934;28;20047;-39
2022/04/30 07:02:21;;;;;;;5.13;1.10;;;;;;;11.72;33.97;100200.59;5045980;28;20052;-38
2022/04/30 07:04:50;;;;;;;2.65;1.10;;;;;;;11.16;34.03;100197.06;5072006;28;20045;-39
2022/04/30 07:07:17;;;;;;;2.15;0.82;;;;;;;10.57;34.21;100199.56;5053745;28;20144;-39
2022/04/30 07:09:43;;;;;;;2.03;1.10;;;;;;;10.28;34.59;100203.78;5061630;28;20127;-39
2022/04/30 07:12:11;;;;;;;4.45;1.13;;;;;;;10.15;34.78;100195.44;5066507;28;20527;-38
2022/04/30 07:14:40;;;;;;;4.35;1.02;;;;;;;10.13;35.22;100202.41;5055322;28;20036;-38
2022/04/30 07:17:10;;;;;;;3.15;1.40;;;;;;;11.83;32.35;100206.38;5067196;28;20052;-38
2022/04/30 07:19:36;;;;;;;3.30;1.00;;;;;;;15.09;28.40;100205.34;5054594;28;20037;-39
2022/04/30 07:22:03;;;;;;;0.75;0.60;;;;;;;15.82;26.42;100197.63;5052919;28;20037;-39
2022/04/30 07:24:31;;;;;;;1.42;1.00;;;;;;;15.52;25.79;100194.66;5050107;28;20045;-39
2022/04/30 07:26:57;;;;;;;5.28;1.08;;;;;;;15.59;26.66;100185.63;5065033;28;20040;-39
2022/04/30 07:29:23;;;;;;;3.45;0.82;;;;;;;14.74;27.62;100205.16;5027529;28;20532;-38
2022/04/30 07:31:49;;;;;;;11.85;1.25;;;;;;;13.76;29.08;100203.97;5047484;28;20128;-38
2022/04/30 07:34:14;;;;;;;5.78;1.08;;;;;;;13.01;30.16;100208.50;5044783;28;20036;-40
2022/04/30 07:36:40;;;;;;;1.05;0.70;;;;;;;12.13;30.27;100207.16;5044262;28;20148;-38
2022/04/30 07:39:06;;;;;;;2.75;1.42;;;;;;;11.68;31.09;100209.41;5046883;28;20106;-39
2022/04/30 07:41:32;;;;;;;1.95;0.82;;;;;;;11.38;31.17;100207.72;5046745;28;20095;-39
2022/04/30 07:43:59;;;;;;;4.40;0.75;;;;;;;11.06;31.62;100206.03;5046767;28;20036;-39
2022/04/30 07:46:26;;;;;;;7.32;1.30;;;;;;;10.85;31.94;100212.69;5047728;28;20072;-38
2022/04/30 07:48:51;;;;;;;5.50;1.10;;;;;;;10.65;31.53;100209.75;5046799;28;20484;-38
2022/04/30 07:54:02;;;;;;;3.60;1.45;;;;;;;10.63;30.82;100203.75;5044590;28;20402;-38
2022/04/30 07:56:28;;;;;;;3.55;1.00;;;;;;;10.96;30.18;100199.38;5049909;28;20051;-38
2022/04/30 07:58:54;;;;;;;2.92;1.10;;;;;;;12.00;29.83;100203.22;5048349;28;20061;-39
2022/04/30 08:01:20;;;;;;;2.50;0.90;;;;;;;13.36;27.81;100205.47;5050175;28;20072;-40
2022/04/30 08:03:46;;;;;;;10.43;4.30;;;;;;;13.93;27.27;100201.53;5055149;28;20107;-39
2022/04/30 08:06:11;;;;;;;1.77;0.90;;;;;;;14.01;26.51;100202.09;5063624;28;20063;-38
2022/04/30 08:08:38;;;;;;;2.10;0.80;;;;;;;15.13;25.77;100192.06;5051534;28;20099;-39
2022/04/30 08:11:04;;;;;;;4.90;1.23;;;;;;;17.12;24.05;100199.81;5049933;28;20045;-38
2022/04/30 08:13:30;;;;;;;2.22;1.17;;;;;;;19.16;22.60;100196.88;5049732;28;20059;-39
2022/04/30 08:15:56;;;;;;;2.97;2.65;;;;;;;20.64;21.23;100189.03;5049898;28;20485;-39
2022/04/30 08:18:21;;;;;;;2.47;1.40;;;;;;;22.02;20.02;100187.19;5050796;28;20116;-40
2022/04/30 08:20:47;;;;;;;5.43;1.30;;;;;;;22.23;19.79;100190.06;5051363;28;20044;-39
2022/04/30 08:23:13;;;;;;;3.05;0.90;;;;;;;21.48;19.85;100171.69;5046447;28;20071;-38
2022/04/30 08:25:40;;;;;;;3.83;1.67;;;;;;;22.26;19.21;100181.88;5050937;28;20516;-40
2022/04/30 08:28:06;;;;;;;4.55;1.20;;;;;;;21.76;19.33;100191.72;5046779;28;20106;-39
2022/04/30 08:30:32;;;;;;;6.05;1.20;;;;;;;20.27;20.36;100174.78;5050594;28;20037;-39
2022/04/30 08:32:58;;;;;;;3.22;1.50;;;;;;;18.97;21.04;100182.22;5050599;28;20041;-38
2022/04/30 08:35:24;;;;;;;4.38;1.20;;;;;;;17.94;21.97;100183.03;5050456;28;20043;-39
2022/04/30 08:37:50;;;;;;;4.15;1.10;;;;;;;17.72;21.87;100187.81;5050145;28;20547;-39
2022/04/30 08:40:16;;;;;;;4.57;0.93;;;;;;;18.28;21.33;100173.19;5048540;28;20045;-38
2022/04/30 08:42:42;;;;;;;3.35;1.00;;;;;;;19.65;20.16;100185.00;5050757;28;20638;-37
2022/04/30 08:45:09;;;;;;;3.10;0.93;;;;;;;20.67;19.49;100180.94;5050161;28;20072;-38
2022/04/30 08:47:47;;;;;;;3.92;1.20;;;;;;;19.78;20.16;100177.16;5049633;28;20090;-40
2022/04/30 08:50:14;;;;;;;2.38;1.10;;;;;;;18.54;20.87;100180.44;5050410;28;20127;-40
2022/04/30 08:52:40;;;;;;;2.42;1.00;;;;;;;17.41;22.04;100185.13;5052461;28;20037;-38
2022/04/30 08:55:08;;;;;;;3.05;1.40;;;;;;;16.41;23.05;100191.22;5032500;28;20626;-39
2022/04/30 08:57:34;;;;;;;5.18;1.05;;;;;;;15.63;23.68;100187.16;5049218;28;20670;-38
2022/04/30 08:59:59;;;;;;;2.38;1.02;;;;;;;15.25;23.75;100172.31;5049046;28;20139;-39
2022/04/30 09:02:26;;;;;;;3.75;1.27;;;;;;;16.26;23.22;100169.22;5050893;28;20131;-38
2022/04/30 09:04:52;;;;;;;4.65;2.15;;;;;;;19.01;21.23;100183.72;5054985;28;20098;-38
2022/04/30 09:07:22;;;;;;;7.18;1.88;;;;;;;21.08;19.76;100184.22;5061292;28;20060;-39
2022/04/30 09:09:54;;;;;;;4.32;0.98;;;;;;;20.40;20.23;100178.34;5050530;28;20123;-38
2022/04/30 09:12:20;;;;;;;4.20;1.10;;;;;;;18.94;21.20;100174.50;5032167;28;20094;-39
2022/04/30 09:14:47;;;;;;;9.07;1.38;;;;;;;18.67;21.58;100156.88;5086582;28;20128;-39
2022/04/30 09:17:14;;;;;;;2.35;1.00;;;;;;;19.81;20.42;100177.81;5048983;28;20504;-39
2022/04/30 09:19:56;;;;;;;3.15;1.00;;;;;;;19.04;20.35;100167.72;5050075;28;20048;-40
2022/04/30 09:22:28;;;;;;;3.72;1.10;;;;;;;18.05;21.28;100164.00;5047984;28;20767;-40
2022/04/30 09:24:54;;;;;;;1.27;0.93;;;;;;;16.92;21.89;100153.59;5051367;28;20527;-39
2022/04/30 09:27:20;;;;;;;1.25;0.85;;;;;;;16.25;22.53;100172.78;5051985;28;20098;-37
2022/04/30 09:29:46;;;;;;;4.00;1.52;;;;;;;15.74;23.27;100173.53;5033163;28;20282;-39
2022/04/30 09:32:17;;;;;;;6.25;2.92;;;;;;;15.31;23.68;100171.19;5081628;28;20706;-40
2022/04/30 09:37:45;;;;;;;3.25;0.98;;;;;;;14.35;24.53;100151.84;5047896;28;20578;-39
2022/04/30 09:40:14;;;;;;;5.25;0.90;;;;;;;14.18;25.27;100157.81;5048650;28;20158;-38
2022/04/30 09:42:44;;;;;;;3.20;1.25;;;;;;;13.96;25.04;100167.44;5049445;28;20043;-40
2022/04/30 09:45:24;;;;;;;2.22;1.00;;;;;;;14.22;25.42;100141.06;5049284;28;20044;-40
2022/04/30 09:47:50;;;;;;;2.70;1.40;;;;;;;14.68;24.80;100150.44;5049593;28;20049;-38
2022/04/30 09:55:55;;;;;;;1.80;1.08;;;;;;;17.38;22.92;100149.34;5047234;28;20082;-38
2022/04/30 09:58:26;;;;;;;6.50;1.20;;;;;;;17.59;22.51;100157.81;5049305;28;20531;-39
2022/04/30 10:00:57;;;;;;;13.48;7.60;;;;;;;17.09;22.76;100155.31;5047234;28;20095;-39
2022/04/30 10:03:29;;;;;;;2.70;1.20;;;;;;;16.40;23.33;100153.63;5048567;28;20047;-38
2022/04/30 10:06:03;;;;;;;5.20;1.27;;;;;;;15.94;23.82;100162.94;5048159;28;20562;-39
2022/04/30 10:08:40;;;;;;;2.20;1.00;;;;;;;15.62;23.62;100151.38;5049395;28;20063;-38
2022/04/30 10:11:54;;;;;;;2.72;1.30;;;;;;;15.05;23.34;100161.91;5048447;28;20037;-38
2022/04/30 10:14:43;;;;;;;1.40;1.00;;;;;;;14.83;24.05;100162.00;5025395;28;20180;-38
2022/04/30 10:17:13;;;;;;;4.05;1.20;;;;;;;14.95;24.34;100152.75;4990410;28;20106;-39
2022/04/30 10:19:40;;;;;;;2.45;1.00;;;;;;;15.19;23.92;100151.63;5037095;28;20049;-39
2022/04/30 10:22:13;;;;;;;4.70;1.25;;;;;;;15.25;23.77;100160.06;5054904;28;20036;-39
2022/04/30 10:24:42;;;;;;;3.33;1.08;;;;;;;15.08;23.82;100151.28;5048798;28;20091;-39
2022/04/30 10:27:11;;;;;;;4.22;1.38;;;;;;;14.79;24.50;100147.34;5031024;28;20551;-38
2022/04/30 10:29:37;;;;;;;7.18;1.80;;;;;;;14.29;24.93;100142.50;5030715;28;20810;-38
2022/04/30 10:32:03;;;;;;;1.63;1.00;;;;;;;13.56;25.40;100148.09;5048537;28;20151;-39
2022/04/30 10:34:30;;;;;;;3.58;1.23;;;;;;;13.19;26.11;100153.00;5047763;28;20614;-39
2022/04/30 10:36:56;;;;;;;4.65;1.35;;;;;;;13.49;26.43;100156.25;5060634;28;20040;-38
2022/04/30 10:39:22;;;;;;;2.83;1.00;;;;;;;13.80;25.90;100153.28;5068647;28;20094;-38
2022/04/30 10:41:53;;;;;;;6.15;1.20;;;;;;;13.86;25.79;100147.81;5049393;28;20556;-39
2022/04/30 10:44:32;;;;;;;1.42;0.93;;;;;;;13.79;25.88;100156.78;5048944;28;20060;-40
2022/04/30 10:47:08;;;;;;;1.77;1.00;;;;;;;13.60;25.81;100158.44;5048904;28;20067;-39
2022/04/30 10:49:35;;;;;;;2.58;1.10;;;;;;;13.37;25.85;100144.50;5043425;28;20425;-39
2022/04/30 10:52:02;;;;;;;3.28;1.00;;;;;;;13.15;25.93;100120.97;5043418;28;20049;-38
2022/04/30 10:54:29;;;;;;;7.93;1.80;;;;;;;13.20;26.04;100151.25;5027471;28;20581;-39
2022/04/30 10:56:59;;;;;;;3.30;1.38;;;;;;;13.31;25.96;100152.56;5045057;28;20095;-39
2022/04/30 10:59:26;;;;;;;8.73;1.73;;;;;;;13.82;25.47;100148.81;5047785;28;20081;-39
2022/04/30 11:01:52;;;;;;;3.08;1.17;;;;;;;13.78;25.42;100149.84;5047649;28;20072;-40
2022/04/30 11:04:19;;;;;;;3.13;1.35;;;;;;;13.52;25.59;100136.06;5050921;28;20121;-38
2022/04/30 11:06:50;;;;;;;11.03;1.20;;;;;;;13.48;25.91;100146.69;5061624;28;20568;-38
2022/04/30 11:09:17;;;;;;;5.18;1.02;;;;;;;13.12;25.90;100141.97;5046570;28;20049;-39
2022/04/30 11:11:46;;;;;;;2.03;1.08;;;;;;;13.25;25.70;100144.97;5080119;28;20041;-39
2022/04/30 11:14:11;;;;;;;3.10;1.30;;;;;;;14.17;25.16;100140.41;5054366;28;20033;-37
2022/04/30 11:16:42;;;;;;;3.05;1.35;;;;;;;15.60;23.91;100139.25;5049799;28;20428;-39
2022/04/30 11:19:11;;;;;;;3.05;1.33;;;;;;;17.59;20.93;100140.28;5033668;28;20071;-48
2022/04/30 11:21:38;;;;;;;1.80;1.10;;;;;;;18.69;19.67;100132.13;5047265;28;20037;-39
2022/04/30 11:24:05;;;;;;;2.80;1.30;;;;;;;19.31;19.55;100130.88;5046768;28;20045;-40
2022/04/30 11:26:42;;;;;;;2.25;0.90;;;;;;;18.69;20.03;100124.22;5043126;28;20041;-39
2022/04/30 11:29:12;;;;;;;10.45;1.75;;;;;;;18.90;19.37;100119.41;5047263;28;20041;-39
2022/04/30 11:31:39;;;;;;;5.15;1.58;;;;;;;20.16;18.42;100119.19;5053606;28;20788;-38
2022/04/30 11:34:13;;;;;;;2.17;1.10;;;;;;;21.69;18.06;100107.56;5053397;28;20036;-39
2022/04/30 11:36:44;;;;;;;3.08;1.15;;;;;;;20.83;18.54;100123.41;5035176;28;20425;-39
2022/04/30 11:39:11;;;;;;;4.70;1.30;;;;;;;20.09;18.99;100102.09;5053842;28;20060;-37
2022/04/30 11:41:41;;;;;;;3.90;1.20;;;;;;;19.55;19.40;100107.41;5063260;28;20040;-38
2022/04/30 11:44:13;;;;;;;4.63;0.95;;;;;;;18.78;19.67;100105.25;5052998;28;20045;-39
2022/04/30 11:46:39;;;;;;;3.13;1.30;;;;;;;17.77;19.94;100112.97;5038612;28;20123;-38
2022/04/30 11:49:10;;;;;;;3.78;1.10;;;;;;;17.04;20.91;100118.78;5053939;28;20067;-39
2022/04/30 11:51:37;;;;;;;4.28;1.10;;;;;;;16.52;21.35;100116.28;5053877;28;20098;-38
2022/04/30 11:54:04;;;;;;;8.32;1.42;;;;;;;16.15;21.80;100123.47;5052149;28;20040;-39
2022/04/30 11:56:33;;;;;;;5.75;1.35;;;;;;;15.53;22.40;100114.28;5057127;28;20033;-38
2022/04/30 11:58:58;;;;;;;4.38;1.67;;;;;;;15.06;23.14;100130.41;5052372;28;20048;-39
2022/04/30 12:01:29;;;;;;;2.78;1.35;;;;;;;14.79;23.64;100127.25;5052758;28;20097;-38
2022/04/30 12:03:58;;;;;;;4.10;1.05;;;;;;;14.70;23.84;100116.34;5052087;28;20351;-38
2022/04/30 12:06:25;;;;;;;;;;;;;;;14.62;23.99;100129.75;5052477;28;20144;-38